Time;durP1;ratioP1;P1;durP2;ratioP2;P2;SDS_P1;SDS_P2;PMS_P1;PMS_P2;Temp;Humidity;BMP_temperature;BMP_pressure;BME280_temperature;BME280_humidity;BME280_pressure;Samples;Min_cycle;Max_cycle;Signal;HPM_P1;HPM_P2
2022/05/05 00:00:44;;;;;;;3.40;2.85;;;;;;;7.72;70.08;101246.09;4984186;28;20048;-80
2022/05/05 00:03:10;;;;;;;10.68;2.90;;;;;;;7.69;69.93;101251.28;4979578;28;20057;-80
2022/05/05 00:05:37;;;;;;;9.73;3.67;;;;;;;7.65;70.00;101252.06;4998447;28;20321;-80
2022/05/05 00:08:04;;;;;;;3.13;2.78;;;;;;;7.62;70.44;101257.25;4997638;28;20084;-79
2022/05/05 00:16:07;;;;;;;6.72;2.83;;;;;;;7.53;71.38;101260.59;5000698;28;20030;-79
2022/05/05 00:18:34;;;;;;;6.07;3.35;;;;;;;7.50;71.80;101260.56;4993250;28;20046;-82
2022/05/05 00:21:04;;;;;;;4.57;3.42;;;;;;;7.43;72.06;101257.03;4976505;28;20585;-83
2022/05/05 00:23:31;;;;;;;9.07;3.60;;;;;;;7.43;72.56;101258.72;4990407;28;20125;-81
2022/05/05 00:25:58;;;;;;;6.93;4.20;;;;;;;7.41;72.80;101255.25;4994348;28;20058;-80
2022/05/05 00:28:30;;;;;;;5.47;4.30;;;;;;;7.40;72.99;101261.31;4986385;28;20415;-81
2022/05/05 00:30:59;;;;;;;4.72;3.78;;;;;;;7.35;73.47;101261.22;4984865;28;20046;-81
2022/05/05 00:33:29;;;;;;;6.85;3.65;;;;;;;7.34;73.75;101269.91;5009348;28;20767;-80
2022/05/05 00:35:55;;;;;;;8.10;4.40;;;;;;;7.27;74.28;101274.16;4996677;28;20513;-81
2022/05/05 00:38:25;;;;;;;7.72;4.43;;;;;;;7.24;74.72;101278.44;5013016;28;20052;-81
2022/05/05 00:40:54;;;;;;;4.70;3.67;;;;;;;7.18;74.85;101276.59;4994804;28;20064;-82
2022/05/05 00:43:22;;;;;;;12.25;4.38;;;;;;;7.15;75.49;101284.38;4996970;28;20103;-81
2022/05/05 00:45:54;;;;;;;7.20;4.20;;;;;;;7.12;75.18;101277.41;4977701;28;20057;-83
2022/05/05 00:48:26;;;;;;;7.10;3.70;;;;;;;7.09;75.60;101276.47;4979689;28;20555;-79
2022/05/05 00:50:53;;;;;;;8.75;4.35;;;;;;;7.04;75.94;101284.22;4984648;28;20042;-80
2022/05/05 00:53:20;;;;;;;10.70;4.00;;;;;;;6.99;76.05;101290.19;4982072;28;20049;-80
2022/05/05 00:56:19;;;;;;;6.80;4.55;;;;;;;6.94;76.29;101288.41;4993205;28;20378;-80
2022/05/05 00:58:49;;;;;;;7.90;4.25;;;;;;;6.88;76.53;101285.72;4995994;28;20056;-79
2022/05/05 01:01:20;;;;;;;9.40;4.43;;;;;;;6.87;76.61;101278.75;4963070;28;20051;-81
2022/05/05 01:03:47;;;;;;;7.18;3.95;;;;;;;6.80;77.33;101279.50;4978959;28;20065;-81
2022/05/05 01:06:14;;;;;;;4.88;3.97;;;;;;;6.75;77.46;101286.34;4981706;28;20056;-81
2022/05/05 01:08:51;;;;;;;7.47;4.13;;;;;;;6.73;77.99;101291.53;4993049;28;20116;-80
2022/05/05 01:11:20;;;;;;;6.72;4.22;;;;;;;6.70;78.47;101290.59;4987290;28;20045;-79
2022/05/05 01:13:46;;;;;;;5.60;3.55;;;;;;;6.66;78.01;101286.19;4978704;28;20058;-80
2022/05/05 01:16:16;;;;;;;8.88;4.57;;;;;;;6.63;78.02;101287.00;4996806;28;20423;-84
2022/05/05 01:18:42;;;;;;;8.55;3.75;;;;;;;6.58;78.49;101292.16;4977531;28;20050;-82
2022/05/05 01:21:12;;;;;;;12.73;4.70;;;;;;;6.55;78.66;101294.66;4973164;28;20137;-80
2022/05/05 01:23:39;;;;;;;6.80;4.20;;;;;;;6.52;78.55;101302.44;4977213;28;20062;-83
2022/05/05 01:28:55;;;;;;;8.32;4.53;;;;;;;6.41;79.35;101296.16;5011811;28;20033;-81
2022/05/05 01:31:22;;;;;;;8.52;4.35;;;;;;;6.38;79.29;101296.97;4979788;28;20046;-81
2022/05/05 01:33:55;;;;;;;9.52;4.60;;;;;;;6.37;79.35;101300.41;4979162;28;20060;-82
2022/05/05 01:36:24;;;;;;;8.00;3.92;;;;;;;6.34;79.62;101299.50;4984228;28;20892;-81
2022/05/05 01:38:53;;;;;;;6.25;3.65;;;;;;;6.30;79.77;101306.34;4997090;28;20504;-81
2022/05/05 01:41:22;;;;;;;5.07;3.90;;;;;;;6.27;80.26;101301.97;4990671;28;20120;-82
2022/05/05 01:43:49;;;;;;;9.25;4.13;;;;;;;6.26;80.43;101305.41;4979473;28;20169;-80
2022/05/05 01:46:18;;;;;;;6.80;4.53;;;;;;;6.25;80.21;101302.78;4985580;28;20124;-78
2022/05/05 01:48:48;;;;;;;6.25;4.70;;;;;;;6.21;80.42;101301.84;4981175;28;20041;-79
2022/05/05 01:51:14;;;;;;;4.55;4.15;;;;;;;6.19;80.84;101306.16;4992080;28;20081;-83
2022/05/05 01:53:41;;;;;;;9.70;4.93;;;;;;;6.19;80.94;101305.25;4995959;28;20081;-84
2022/05/05 01:56:12;;;;;;;11.43;4.75;;;;;;;6.16;81.37;101319.09;4993773;28;20053;-82
2022/05/05 01:58:42;;;;;;;5.72;4.70;;;;;;;6.15;81.14;101321.66;4985671;28;20119;-81
2022/05/05 02:01:10;;;;;;;6.72;4.38;;;;;;;6.13;81.17;101325.09;4986009;28;20042;-82
2022/05/05 02:03:36;;;;;;;6.30;4.43;;;;;;;6.11;81.39;101331.09;5001089;28;20045;-80
2022/05/05 02:06:03;;;;;;;5.93;3.78;;;;;;;6.06;81.52;101327.53;4980052;28;20088;-81
2022/05/05 02:08:30;;;;;;;5.63;4.55;;;;;;;6.03;81.64;101325.75;4998311;28;20046;-81
2022/05/05 02:10:57;;;;;;;7.13;5.10;;;;;;;6.00;82.18;101332.59;4979799;28;20118;-82
2022/05/05 02:13:23;;;;;;;7.18;4.28;;;;;;;6.00;82.07;101330.91;4999041;28;20161;-80
2022/05/05 02:15:50;;;;;;;10.60;4.72;;;;;;;5.99;82.34;101326.53;4980920;28;20157;-81
2022/05/05 02:18:18;;;;;;;9.07;4.57;;;;;;;6.00;81.91;101336.09;4978375;28;20064;-81
2022/05/05 02:20:45;;;;;;;5.50;5.03;;;;;;;5.99;81.83;101336.94;4985906;28;20080;-81
2022/05/05 02:23:15;;;;;;;7.97;5.38;;;;;;;5.99;82.04;101336.06;4997153;28;20709;-80
2022/05/05 02:25:44;;;;;;;9.15;5.22;;;;;;;6.00;82.24;101337.78;5010013;28;20094;-83
2022/05/05 02:28:11;;;;;;;6.85;4.47;;;;;;;6.00;82.07;101345.59;4997044;28;20030;-82
2022/05/05 02:31:01;;;;;;;9.43;4.63;;;;;;;5.97;82.59;101331.69;4992527;28;20054;-81
2022/05/05 02:33:28;;;;;;;6.70;4.28;;;;;;;5.97;82.15;101331.69;4998682;28;20717;-82
2022/05/05 02:38:46;;;;;;;8.90;4.53;;;;;;;5.93;82.13;101336.75;5001625;28;20505;-80
2022/05/05 02:41:13;;;;;;;6.47;4.32;;;;;;;5.89;82.41;101337.53;4975444;28;20057;-84
2022/05/05 02:43:43;;;;;;;8.18;4.30;;;;;;;5.87;82.49;101342.72;4983070;28;20045;-80
2022/05/05 02:46:09;;;;;;;6.35;4.50;;;;;;;5.86;82.77;101340.09;4997727;28;20369;-82
2022/05/05 02:48:38;;;;;;;7.15;4.75;;;;;;;5.85;82.80;101340.94;4978328;28;20065;-82
2022/05/05 02:51:06;;;;;;;9.50;4.95;;;;;;;5.83;83.25;101340.00;4992965;28;20046;-80
2022/05/05 02:56:16;;;;;;;6.00;5.18;;;;;;;5.73;83.30;101338.94;4981415;28;20048;-82
2022/05/05 02:58:43;;;;;;;9.15;5.57;;;;;;;5.70;83.44;101338.88;4985198;28;20038;-80
2022/05/05 03:01:10;;;;;;;6.28;5.25;;;;;;;5.70;84.17;101336.28;4978746;28;20052;-80
2022/05/05 03:03:37;;;;;;;5.80;4.93;;;;;;;5.67;83.85;101334.50;4973758;28;20520;-81
2022/05/05 03:06:04;;;;;;;7.85;6.78;;;;;;;5.66;84.32;101337.03;4993590;28;20178;-81
2022/05/05 03:08:30;;;;;;;7.10;5.10;;;;;;;5.63;84.10;101328.34;4999061;28;20069;-82
2022/05/05 03:10:57;;;;;;;8.73;4.97;;;;;;;5.63;84.15;101325.75;4989934;28;20042;-80
2022/05/05 03:13:27;;;;;;;6.10;4.82;;;;;;;5.63;84.97;101330.94;4995541;28;20046;-81
2022/05/05 03:15:54;;;;;;;10.65;4.57;;;;;;;5.65;84.43;101336.19;4986761;28;20060;-80
2022/05/05 03:18:20;;;;;;;8.23;5.35;;;;;;;5.65;84.89;101333.56;4987032;28;20050;-79
2022/05/05 03:20:48;;;;;;;6.28;4.95;;;;;;;5.63;84.91;101333.56;4994139;28;20453;-80
2022/05/05 03:23:15;;;;;;;7.05;4.70;;;;;;;5.65;84.41;101333.56;4979116;28;20046;-82
2022/05/05 03:25:44;;;;;;;15.05;7.07;;;;;;;5.66;84.89;101329.25;4998740;28;20089;-82
2022/05/05 03:28:11;;;;;;;7.28;4.97;;;;;;;5.65;84.62;101335.31;4985279;28;20041;-82
2022/05/05 03:30:39;;;;;;;10.70;5.13;;;;;;;5.66;84.98;101335.34;5002047;28;20046;-82
2022/05/05 03:33:06;;;;;;;7.00;4.68;;;;;;;5.67;84.87;101331.00;4967943;28;20128;-80
2022/05/05 03:35:33;;;;;;;11.13;6.15;;;;;;;5.69;84.61;101330.19;5005483;28;20045;-82
2022/05/05 03:38:04;;;;;;;8.93;5.38;;;;;;;5.69;84.68;101338.00;5016742;28;20081;-82
2022/05/05 03:40:30;;;;;;;7.72;5.70;;;;;;;5.69;84.58;101338.00;4984784;28;20246;-81
2022/05/05 03:42:57;;;;;;;9.43;5.70;;;;;;;5.71;84.87;101341.50;4984769;28;20069;-82
2022/05/05 03:45:23;;;;;;;15.18;6.97;;;;;;;5.74;85.17;101341.56;4985668;28;20105;-83
2022/05/05 03:47:50;;;;;;;7.65;5.30;;;;;;;5.78;84.43;101343.38;4966023;28;20047;-81
2022/05/05 03:50:17;;;;;;;10.38;6.22;;;;;;;5.83;84.66;101340.91;4963176;28;20108;-80
2022/05/05 03:52:43;;;;;;;8.85;5.60;;;;;;;5.80;84.76;101333.91;4966695;28;20046;-80
2022/05/05 03:55:10;;;;;;;7.75;5.45;;;;;;;5.82;84.27;101346.94;4981402;28;20089;-80
2022/05/05 03:57:36;;;;;;;9.68;5.90;;;;;;;5.79;84.48;101336.50;4962574;28;20042;-81
2022/05/05 04:00:05;;;;;;;10.70;5.72;;;;;;;5.75;84.66;101343.31;4962350;28;20127;-82
2022/05/05 04:02:32;;;;;;;7.97;4.97;;;;;;;5.72;84.82;101335.47;4979311;28;20092;-82
2022/05/05 04:04:58;;;;;;;12.18;5.57;;;;;;;5.69;84.87;101344.91;4962236;28;20070;-82
2022/05/05 04:07:25;;;;;;;14.85;5.68;;;;;;;5.64;85.28;101344.81;4959900;28;20042;-81
2022/05/05 04:09:53;;;;;;;9.40;5.63;;;;;;;5.62;85.18;101342.19;4976592;28;20902;-81
2022/05/05 04:12:20;;;;;;;5.70;5.18;;;;;;;5.61;85.46;101345.63;4963968;28;20089;-81
2022/05/05 04:14:48;;;;;;;7.45;5.30;;;;;;;5.59;85.47;101344.72;4980241;28;20050;-81
2022/05/05 04:17:14;;;;;;;9.10;5.80;;;;;;;5.61;85.93;101352.53;4990364;28;20805;-82
2022/05/05 04:19:41;;;;;;;11.25;7.35;;;;;;;5.63;86.18;101353.44;4978558;28;20065;-81
2022/05/05 04:22:11;;;;;;;9.60;5.78;;;;;;;5.66;85.52;101350.94;4997115;28;20070;-81
2022/05/05 04:24:41;;;;;;;7.22;5.53;;;;;;;5.69;85.39;101350.97;4968997;28;20054;-84
2022/05/05 04:27:09;;;;;;;10.90;6.90;;;;;;;5.72;85.31;101351.06;4990843;28;20038;-81
2022/05/05 04:29:41;;;;;;;11.75;6.50;;;;;;;5.76;85.06;101357.19;4973544;28;20033;-81
2022/05/05 04:32:11;;;;;;;10.50;7.05;;;;;;;5.79;85.16;101365.06;4976347;28;20046;-80
2022/05/05 04:34:40;;;;;;;9.30;6.35;;;;;;;5.83;85.04;101363.38;5002067;28;20109;-82
2022/05/05 04:37:08;;;;;;;10.57;6.45;;;;;;;5.89;84.93;101360.94;4987694;28;20050;-80
2022/05/05 04:39:35;;;;;;;13.32;6.72;;;;;;;5.96;84.24;101366.28;4986856;28;20038;-82
2022/05/05 04:42:02;;;;;;;8.38;6.25;;;;;;;6.01;84.34;101373.34;5003651;28;20038;-83
2022/05/05 04:44:32;;;;;;;13.85;6.47;;;;;;;6.06;83.65;101367.41;4999346;28;20038;-80
2022/05/05 04:47:09;;;;;;;14.68;7.70;;;;;;;6.09;83.57;101367.47;5013148;28;20093;-82
2022/05/05 04:49:44;;;;;;;11.75;7.32;;;;;;;6.17;83.65;101366.78;5009147;28;20085;-81
2022/05/05 04:52:27;;;;;;;14.05;7.15;;;;;;;6.25;83.12;101370.41;4994929;28;20066;-83
2022/05/05 04:54:56;;;;;;;12.80;7.03;;;;;;;6.30;82.75;101373.97;5003611;28;20144;-83
2022/05/05 04:57:31;;;;;;;15.50;7.32;;;;;;;6.34;82.30;101380.13;5010755;28;20061;-84
2022/05/05 05:00:16;;;;;;;12.48;7.55;;;;;;;6.39;82.07;101375.88;5014200;28;20041;-82
2022/05/05 05:02:46;;;;;;;15.18;7.63;;;;;;;6.44;81.40;101382.91;5005665;28;20042;-82
2022/05/05 05:05:13;;;;;;;16.92;7.88;;;;;;;6.47;81.53;101384.69;4988925;28;20053;-82
2022/05/05 05:07:40;;;;;;;12.90;6.63;;;;;;;6.50;81.94;101382.16;5006701;28;20113;-83
2022/05/05 05:10:08;;;;;;;19.58;7.88;;;;;;;6.55;81.46;101375.31;5009347;28;20057;-81
2022/05/05 05:12:35;;;;;;;16.30;7.57;;;;;;;6.60;81.38;101376.28;4993689;28;20041;-81
2022/05/05 05:15:01;;;;;;;16.67;7.05;;;;;;;6.64;81.00;101381.56;5022992;28;20052;-82
2022/05/05 05:17:32;;;;;;;10.13;6.70;;;;;;;6.70;81.12;101381.66;4999719;28;20050;-83
2022/05/05 05:19:59;;;;;;;11.30;6.20;;;;;;;6.74;80.73;101381.75;5022088;28;20060;-81
2022/05/05 05:22:28;;;;;;;11.18;6.53;;;;;;;6.78;80.64;101391.38;4989184;28;20742;-82
2022/05/05 05:24:59;;;;;;;11.68;6.95;;;;;;;6.81;80.46;101390.53;4991398;28;20575;-80
2022/05/05 05:27:26;;;;;;;9.73;6.82;;;;;;;6.84;80.56;101393.19;5003091;28;20046;-81
2022/05/05 05:30:03;;;;;;;11.60;6.75;;;;;;;6.89;80.27;101390.69;5009782;28;20380;-82
2022/05/05 05:32:29;;;;;;;11.20;6.57;;;;;;;6.93;80.46;101395.09;4995984;28;20079;-81
2022/05/05 05:34:56;;;;;;;12.80;7.45;;;;;;;6.92;80.75;101389.03;5021303;28;20041;-83
2022/05/05 05:37:25;;;;;;;13.75;6.88;;;;;;;6.95;80.11;101393.41;4987539;28;20168;-83
2022/05/05 05:39:52;;;;;;;17.60;7.70;;;;;;;6.99;80.03;101389.09;4998357;28;20038;-83
2022/05/05 05:42:19;;;;;;;15.00;7.28;;;;;;;7.04;79.77;101395.28;4981244;28;20065;-82
2022/05/05 05:44:45;;;;;;;13.02;7.10;;;;;;;7.06;79.12;101397.06;4985565;28;20050;-83
2022/05/05 05:47:12;;;;;;;13.85;7.15;;;;;;;7.10;79.02;101395.38;4967257;28;20189;-83
2022/05/05 05:49:42;;;;;;;15.35;7.85;;;;;;;7.15;78.85;101398.94;4969511;28;20038;-84
2022/05/05 05:52:12;;;;;;;10.27;7.03;;;;;;;7.21;78.31;101404.28;4950858;28;20833;-82
2022/05/05 05:54:40;;;;;;;14.52;8.40;;;;;;;7.26;78.05;101410.44;4963862;28;20444;-82
2022/05/05 05:57:06;;;;;;;13.20;8.00;;;;;;;7.35;77.84;101411.44;4985987;28;20046;-83
2022/05/05 05:59:43;;;;;;;15.73;7.30;;;;;;;7.37;77.43;101418.41;4983408;28;20039;-83
2022/05/05 06:05:04;;;;;;;15.07;8.35;;;;;;;7.47;77.30;101414.25;4960530;28;20041;-82
2022/05/05 06:07:33;;;;;;;10.23;7.80;;;;;;;7.53;76.48;101422.13;4969879;28;20856;-84
2022/05/05 06:10:00;;;;;;;16.52;7.47;;;;;;;7.61;75.99;101423.16;4974884;28;20054;-84
2022/05/05 06:12:36;;;;;;;14.20;7.05;;;;;;;7.68;76.23;101426.72;4987081;28;20034;-83
2022/05/05 06:15:08;;;;;;;11.90;7.50;;;;;;;7.76;75.79;101429.47;4991572;28;20359;-85
2022/05/05 06:17:40;;;;;;;12.80;7.88;;;;;;;7.81;75.94;101435.63;4974144;28;20097;-81
2022/05/05 06:20:20;;;;;;;17.52;7.88;;;;;;;7.86;75.89;101433.97;4970856;28;20138;-82
2022/05/05 06:23:02;;;;;;;11.27;8.10;;;;;;;7.95;76.34;101435.78;4973976;28;20047;-83
2022/05/05 06:25:33;;;;;;;45.38;28.17;;;;;;;8.05;76.04;101439.44;4977459;28;20052;-83
2022/05/05 06:28:04;;;;;;;16.02;10.82;;;;;;;8.10;75.50;101443.84;5000873;28;20042;-85
2022/05/05 06:30:40;;;;;;;12.63;9.05;;;;;;;8.14;74.87;101439.56;4967515;28;20046;-81
2022/05/05 06:33:07;;;;;;;12.50;8.10;;;;;;;8.18;74.33;101445.69;4998919;28;20644;-82
2022/05/05 06:35:39;;;;;;;17.30;9.02;;;;;;;8.22;73.72;101448.34;4983653;28;20122;-84
2022/05/05 06:38:10;;;;;;;8.60;6.93;;;;;;;8.32;73.22;101451.97;4983305;28;20374;-83
2022/05/05 06:40:43;;;;;;;10.13;6.63;;;;;;;8.39;72.81;101455.53;4999244;28;20065;-82
2022/05/05 06:43:10;;;;;;;19.95;8.25;;;;;;;8.43;72.41;101453.00;5013579;28;20080;-84
2022/05/05 06:45:36;;;;;;;18.65;6.57;;;;;;;8.49;72.09;101439.16;4989468;28;20130;-82
2022/05/05 06:48:08;;;;;;;12.13;6.93;;;;;;;8.56;71.79;101443.59;5009420;28;20058;-84
2022/05/05 06:50:35;;;;;;;18.55;8.05;;;;;;;8.68;71.20;101452.44;4980885;28;20057;-85
2022/05/05 06:53:09;;;;;;;13.65;8.30;;;;;;;8.83;70.60;101457.84;4982713;28;20066;-83
2022/05/05 06:55:39;;;;;;;;;;;;;;;9.04;69.68;101458.94;5007865;28;20038;-83
2022/05/05 06:58:11;;;;;;;12.23;7.75;;;;;;;9.38;68.44;101454.03;5003981;28;19930;-84
2022/05/05 07:03:26;;;;;;;11.50;7.07;;;;;;;10.44;65.99;101443.41;4992814;28;20068;-82
2022/05/05 07:06:12;;;;;;;15.13;6.05;;;;;;;11.08;63.70;101445.34;5008556;28;20046;-85
2022/05/05 07:11:31;;;;;;;12.52;5.10;;;;;;;12.36;59.03;101447.00;5006166;28;20117;-83
2022/05/05 07:14:00;;;;;;;8.45;5.40;;;;;;;12.84;57.72;101451.16;5004317;28;20141;-82
2022/05/05 07:16:39;;;;;;;7.60;5.28;;;;;;;13.28;54.91;101449.16;5004695;28;20116;-84
2022/05/05 07:19:11;;;;;;;8.38;4.40;;;;;;;13.70;54.21;101447.06;5021098;28;20041;-82
2022/05/05 07:21:38;;;;;;;6.78;3.47;;;;;;;14.23;49.56;101448.25;4998640;28;20026;-84
2022/05/05 07:24:06;;;;;;;10.68;3.58;;;;;;;14.42;49.65;101455.97;5014460;28;20064;-81
2022/05/05 07:26:33;;;;;;;7.45;3.67;;;;;;;14.61;48.04;101450.47;4974050;28;20046;-81
2022/05/05 07:28:59;;;;;;;6.47;3.63;;;;;;;14.81;48.16;101455.50;5002976;28;20044;-83
2022/05/05 07:31:27;;;;;;;4.78;2.85;;;;;;;15.28;47.86;101450.41;4988893;28;20120;-84
2022/05/05 07:33:54;;;;;;;6.25;3.47;;;;;;;15.81;45.27;101448.69;4998982;28;20126;-83
2022/05/05 07:36:21;;;;;;;5.53;3.03;;;;;;;16.27;45.24;101451.34;5001953;28;20256;-83
2022/05/05 07:38:48;;;;;;;5.25;3.42;;;;;;;16.67;44.29;101453.16;5012013;28;20113;-84
2022/05/05 07:41:15;;;;;;;4.68;3.25;;;;;;;17.14;43.46;101455.66;4998565;28;20223;-83
2022/05/05 07:43:42;;;;;;;10.32;3.83;;;;;;;17.47;41.51;101454.00;4988219;28;20050;-84
2022/05/05 07:46:11;;;;;;;4.18;2.85;;;;;;;17.68;41.41;101463.16;5000137;28;20117;-83
2022/05/05 07:48:40;;;;;;;4.32;3.08;;;;;;;18.14;40.37;101463.72;4994394;28;20428;-82
2022/05/05 07:51:12;;;;;;;7.75;3.10;;;;;;;18.51;39.07;101462.69;4998434;28;20069;-84
2022/05/05 07:53:41;;;;;;;7.50;3.58;;;;;;;18.69;39.29;101460.41;4990144;28;20060;-82
2022/05/05 07:56:08;;;;;;;5.85;3.22;;;;;;;19.05;38.46;101460.22;4970132;28;20097;-85
2022/05/05 07:58:35;;;;;;;8.07;3.65;;;;;;;19.30;36.70;101462.09;4974106;28;20591;-82
2022/05/05 08:01:02;;;;;;;4.60;3.25;;;;;;;19.28;36.99;101461.25;4997944;28;20416;-83
2022/05/05 08:03:28;;;;;;;4.28;3.63;;;;;;;19.34;35.58;101461.94;4986425;28;20076;-84
2022/05/05 08:05:58;;;;;;;5.30;3.40;;;;;;;19.30;36.00;101470.06;4970799;28;20075;-83
2022/05/05 08:08:25;;;;;;;14.05;3.80;;;;;;;19.53;36.10;101471.97;4988912;28;20046;-83
2022/05/05 08:10:53;;;;;;;9.02;4.57;;;;;;;19.78;35.71;101473.78;4968301;28;20100;-82
2022/05/05 08:13:20;;;;;;;4.55;3.60;;;;;;;20.02;34.86;101480.06;4974427;28;20267;-83
2022/05/05 08:15:46;;;;;;;6.40;3.28;;;;;;;20.44;34.22;101475.88;4991818;28;20058;-85
2022/05/05 08:18:13;;;;;;;6.72;4.07;;;;;;;20.84;33.67;101468.22;4995142;28;20056;-84
2022/05/05 08:20:43;;;;;;;8.27;3.60;;;;;;;21.21;33.19;101480.94;4989491;28;20532;-83
2022/05/05 08:23:13;;;;;;;6.05;3.67;;;;;;;21.57;31.88;101484.84;4987723;28;20045;-84
2022/05/05 08:28:29;;;;;;;7.60;4.32;;;;;;;22.30;31.23;101485.22;4973711;28;20447;-83
2022/05/05 08:31:00;;;;;;;5.77;4.20;;;;;;;22.65;30.29;101489.94;4974376;28;20052;-83
2022/05/05 08:33:30;;;;;;;5.20;3.35;;;;;;;22.89;29.74;101482.56;4992715;28;20073;-82
2022/05/05 08:35:59;;;;;;;8.35;3.95;;;;;;;23.02;29.08;101483.69;4995068;28;20135;-83
2022/05/05 08:38:26;;;;;;;7.45;4.20;;;;;;;23.15;28.88;101491.16;4974850;28;20507;-84
2022/05/05 08:40:53;;;;;;;9.07;4.05;;;;;;;23.46;28.59;101486.03;4963411;28;20058;-82
2022/05/05 08:43:23;;;;;;;7.40;4.20;;;;;;;23.77;27.53;101487.16;4956573;28;20653;-83
2022/05/05 08:45:58;;;;;;;5.85;3.50;;;;;;;23.51;26.75;101485.81;4972736;28;20047;-83
2022/05/05 08:48:25;;;;;;;5.90;3.90;;;;;;;23.73;27.35;101490.94;4970216;28;20059;-85
2022/05/05 08:51:00;;;;;;;3.55;3.25;;;;;;;24.47;26.43;101493.38;4963822;28;20429;-83
2022/05/05 08:53:35;;;;;;;7.85;4.07;;;;;;;24.76;26.73;101492.66;4967211;28;20057;-83
2022/05/05 08:56:05;;;;;;;4.03;2.90;;;;;;;25.25;26.00;101497.06;4945147;28;20046;-85
2022/05/05 08:58:33;;;;;;;6.82;3.33;;;;;;;25.73;25.23;101493.44;4986146;28;20418;-85
2022/05/05 09:00:59;;;;;;;5.35;2.90;;;;;;;25.82;24.57;101492.03;4954501;28;20050;-83
2022/05/05 09:03:26;;;;;;;5.95;2.75;;;;;;;25.80;24.56;101496.63;4965740;28;20085;-84
2022/05/05 09:05:55;;;;;;;4.68;3.20;;;;;;;26.16;24.08;101500.75;4986113;28;20082;-84
2022/05/05 09:08:24;;;;;;;4.93;3.00;;;;;;;26.47;24.05;101501.53;4965045;28;20042;-84
2022/05/05 09:10:52;;;;;;;4.32;2.90;;;;;;;26.78;23.70;101502.28;4980407;28;20054;-83
2022/05/05 09:13:23;;;;;;;3.25;2.78;;;;;;;26.56;23.66;101509.00;4962322;28;20053;-82
2022/05/05 09:15:49;;;;;;;4.40;3.28;;;;;;;26.11;24.17;101511.75;4956653;28;20046;-83
2022/05/05 09:18:19;;;;;;;3.50;3.20;;;;;;;26.46;23.86;101510.53;4982783;28;20643;-84
2022/05/05 09:20:47;;;;;;;4.05;2.95;;;;;;;26.16;24.13;101515.00;4962623;28;20050;-84
2022/05/05 09:24:34;;;;;;;7.00;3.08;;;;;;;26.05;23.68;101514.81;4951304;28;20513;-87
2022/05/05 09:26:30;;;;;;;3.63;2.53;;;;;;;26.37;23.52;101514.66;4962601;28;20081;-84
2022/05/05 09:28:57;;;;;;;5.22;2.67;;;;;;;27.22;23.02;101509.25;4948567;28;20433;-84
2022/05/05 09:31:25;;;;;;;7.82;3.00;;;;;;;27.90;22.42;101508.31;4964236;28;20133;-83
2022/05/05 09:33:52;;;;;;;3.40;2.88;;;;;;;28.01;22.58;101501.31;4947596;28;20046;-84
2022/05/05 09:36:27;;;;;;;4.72;3.08;;;;;;;27.37;22.34;101499.34;4936670;28;20054;-84
2022/05/05 09:39:05;;;;;;;5.78;2.50;;;;;;;26.51;22.70;101503.06;4968843;28;20497;-83
2022/05/05 09:41:44;;;;;;;16.13;4.45;;;;;;;26.71;22.89;101507.16;4934534;28;20163;-83
2022/05/05 09:44:20;;;;;;;4.75;2.97;;;;;;;27.06;22.61;101504.03;4961958;28;20092;-83
2022/05/05 09:46:48;;;;;;;3.67;2.95;;;;;;;27.52;22.56;101505.53;4984674;28;20050;-84
2022/05/05 09:49:20;;;;;;;4.70;2.97;;;;;;;28.13;21.69;101507.72;4976355;28;20049;-83
2022/05/05 09:57:44;;;;;;;5.75;3.00;;;;;;;29.09;20.93;101507.13;4960363;28;20043;-84
2022/05/05 10:00:43;;;;;;;8.25;4.60;;;;;;;29.19;20.75;101507.31;4969200;28;20051;-84
2022/05/05 10:06:00;;;;;;;6.82;3.05;;;;;;;29.19;21.48;101496.50;4969780;28;20042;-84
2022/05/05 10:08:38;;;;;;;5.90;2.20;;;;;;;29.88;20.35;101503.09;4969974;28;20042;-82
2022/05/05 10:11:07;;;;;;;5.25;2.67;;;;;;;30.16;20.08;101513.44;4966913;28;20034;-84
2022/05/05 10:13:38;;;;;;;5.60;2.92;;;;;;;30.77;19.31;101503.28;4967689;28;20506;-83
2022/05/05 10:16:06;;;;;;;4.47;2.28;;;;;;;31.13;19.06;101503.97;4954449;28;20476;-83
2022/05/05 10:18:37;;;;;;;6.68;4.10;;;;;;;31.20;18.51;101505.19;4967754;28;20508;-87
2022/05/05 10:21:09;;;;;;;7.20;2.90;;;;;;;30.28;19.65;101498.13;4970499;28;20048;-83
2022/05/05 10:24:05;;;;;;;3.22;2.53;;;;;;;30.48;19.47;101514.59;4969377;28;20714;-84
2022/05/05 10:26:32;;;;;;;4.53;2.28;;;;;;;31.08;18.94;101501.66;4954944;28;20043;-84
2022/05/05 10:28:59;;;;;;;4.10;2.40;;;;;;;31.44;18.98;101512.22;4957280;28;20050;-84
2022/05/05 10:31:32;;;;;;;5.18;2.63;;;;;;;31.53;17.65;101508.72;4950439;28;20055;-83
2022/05/05 10:34:06;;;;;;;3.60;2.45;;;;;;;31.58;17.99;101501.09;4971554;28;20533;-84
2022/05/05 10:36:35;;;;;;;4.00;2.00;;;;;;;31.79;17.83;101508.41;4964938;28;20478;-83
2022/05/05 10:39:22;;;;;;;4.97;2.13;;;;;;;32.00;17.06;101503.81;4971829;28;21914;-83
2022/05/05 10:41:51;;;;;;;1.95;1.77;;;;;;;31.89;17.16;101509.31;4970701;28;20416;-85
2022/05/05 10:44:17;;;;;;;4.28;2.17;;;;;;;31.76;17.64;101503.22;4969500;28;20047;-84
2022/05/05 10:47:06;;;;;;;3.58;1.80;;;;;;;32.28;16.93;101508.69;4993195;28;20054;-84
2022/05/05 10:49:32;;;;;;;4.43;1.98;;;;;;;32.27;16.93;101502.44;5005906;28;20050;-83
2022/05/05 10:52:17;;;;;;;3.45;1.42;;;;;;;32.09;16.53;101499.44;4985250;28;20131;-83
2022/05/05 10:54:47;;;;;;;4.32;1.65;;;;;;;32.26;17.06;101507.97;4992728;28;20053;-82
2022/05/05 10:57:25;;;;;;;4.35;1.40;;;;;;;32.61;16.51;101502.13;4975755;28;20042;-86
2022/05/05 11:00:12;;;;;;;6.10;1.70;;;;;;;33.01;16.29;101499.53;4988722;28;20041;-84
2022/05/05 11:02:42;;;;;;;2.40;1.10;;;;;;;33.25;16.22;101504.56;4968825;28;20040;-85
2022/05/05 11:05:27;;;;;;;5.70;1.40;;;;;;;33.52;15.38;101501.16;4981362;28;20575;-85
2022/05/05 11:08:07;;;;;;;2.10;1.00;;;;;;;33.81;15.93;101505.72;4973686;28;20078;-84
2022/05/05 11:11:39;;;;;;;1.50;1.40;;;;;;;34.06;15.41;101503.38;5000813;28;20043;-85
2022/05/05 11:13:46;;;;;;;1.63;1.35;;;;;;;34.36;14.61;101499.59;4989954;28;20240;-84
2022/05/05 11:22:10;;;;;;;1.73;1.27;;;;;;;33.99;14.87;101496.81;5002122;28;20034;-85
2022/05/05 11:24:39;;;;;;;3.10;1.20;;;;;;;34.16;15.06;101497.91;4990169;28;20155;-82
2022/05/05 11:27:14;;;;;;;1.65;0.70;;;;;;;34.38;14.65;101494.88;4957810;28;20069;-83
2022/05/05 11:29:42;;;;;;;0.80;0.80;;;;;;;34.50;14.37;101502.81;4975764;28;20037;-83
2022/05/05 11:32:09;;;;;;;1.42;0.63;;;;;;;34.38;14.33;101502.16;4994769;28;20104;-84
2022/05/05 11:34:39;;;;;;;0.63;0.63;;;;;;;34.60;14.08;101504.47;4970764;28;20046;-82
2022/05/05 11:37:09;;;;;;;4.35;0.90;;;;;;;34.60;14.12;101501.78;4976778;28;20062;-82
2022/05/05 11:39:40;;;;;;;0.55;0.52;;;;;;;34.37;14.57;101492.31;5010085;28;20049;-85
2022/05/05 11:42:12;;;;;;;3.08;1.85;;;;;;;34.67;14.13;101487.53;4986023;28;20396;-83
2022/05/05 11:44:43;;;;;;;0.88;0.88;;;;;;;34.73;14.08;101490.53;4987030;28;20052;-83
2022/05/05 11:47:17;;;;;;;2.45;1.42;;;;;;;34.65;14.03;101500.44;4982207;28;20045;-85
2022/05/05 11:49:51;;;;;;;3.22;0.80;;;;;;;35.22;13.44;101500.25;4981584;28;20116;-85
2022/05/05 11:52:25;;;;;;;1.73;0.68;;;;;;;35.37;13.67;101496.00;5013019;28;20696;-83
2022/05/05 11:54:57;;;;;;;1.73;0.85;;;;;;;35.60;13.25;101500.94;5004082;28;20049;-83
2022/05/05 11:57:39;;;;;;;2.42;0.82;;;;;;;35.26;12.88;101502.47;5012436;28;20710;-83
2022/05/05 12:02:57;;;;;;;1.15;0.77;;;;;;;35.52;13.33;101495.44;4980421;28;20042;-83
2022/05/05 12:05:25;;;;;;;1.77;1.00;;;;;;;35.26;13.62;101496.19;4958432;28;20419;-84
2022/05/05 12:07:54;;;;;;;1.90;1.15;;;;;;;35.29;13.62;101493.16;4998508;28;20061;-82
2022/05/05 12:10:21;;;;;;;1.60;0.90;;;;;;;35.70;13.27;101498.13;4992901;28;20404;-83
2022/05/05 12:12:52;;;;;;;1.35;0.65;;;;;;;35.39;13.22;101499.41;4993846;28;20089;-82
2022/05/05 12:15:20;;;;;;;2.78;0.90;;;;;;;35.90;12.81;101499.63;4993561;28;20070;-85
2022/05/05 12:17:57;;;;;;;2.58;0.80;;;;;;;36.99;12.20;101490.94;4994130;28;20069;-82
2022/05/05 12:20:30;;;;;;;1.77;0.73;;;;;;;36.76;12.07;101491.56;4985099;28;20049;-83
2022/05/05 12:23:08;;;;;;;0.82;0.82;;;;;;;35.98;12.56;101495.28;4985440;23;20647;-90